Davisville, Missouri
Current Conditions -  °F | °C
As of 8:53 AM on Saturday 25 Oct 2014 (Local Time) from KVIH Reporting Station
Clear Clear  
Wind Chill: 62°   Ceiling: Unl
Heat Index: 62°   Visibility: 7mi
Dew Point: 59°   Wind: 9mph
Humidity: 90%   Direction: 270°W
Pressure: 30.06"   Gusts: NA
Location:  37.81°N, 91.19°W
Report Text: KVIH 251353Z AUTO 27008KT 7SM CLR 17/15 A3006 RMK AO2 SLP174 T01670150
Loading
Personal Weather Stations






























Interactive Weather Map
Tropical Storm Tracking
New forecast layout! Learn more

10-Day Weather Forecast

Advertisements
Track Severe Weather on mobile